McGuffey, OH (45859)

8:19 PM EDT on September 21, 2014 (GMT -0400)
Ada | Change Station
CLOSE
Current Station
Personal Weather Station
Location: Ada, OH
Elevation: 912 ft
Nearby Weather Stations

Elev 912 ft 40.82 °N, 83.86 °W | Updated 2 seconds ago

Overcast
Overcast
57.7 °F
Feels Like 57.7 °F
N
5.0
Wind Variable Wind from NW
Gusts 14.0 mph

Today
High -- | Low -- °F
--% Chance of Precip.
Yesterday
High -- | Low -- °F
Precip. -- in
7:21 AM 7:33 PM
Waning Crescent, 5% visible
Pressure 29.92 in
Visibility 10.0 miles
Clouds Few 3500 ft
Overcast 4800 ft
Dew Point 53 °F
Humidity 83%
Rainfall 0.13 in
Snow Depth Not available.
UV 0 out of 12
Pollen 3.00 out of 12
Air Quality Not available.
Flu Activity Not available.
METAR KAOH 212353Z AUTO 30014G25KT 10SM FEW035 OVC048 15/10 A2993 RMK AO2 SLP131 60005 T01500100 10217 20150 53026

More Conditions Fewer Conditions

Pressure 29.92 in
Visibility 10.0 miles
Clouds Few 3500 ft
Overcast 4800 ft
Dew Point 53 °F
Humidity 83%
Rainfall 0.13 in
Snow Depth Not available.
UV 0 out of 12
Pollen 3.00 out of 12
Air Quality Not available.
Flu Activity Not available.
METAR KAOH 212353Z AUTO 30014G25KT 10SM FEW035 OVC048 15/10 A2993 RMK AO2 SLP131 60005 T01500100 10217 20150 53026

More Conditions Fewer Conditions

10-Day Weather Forecast

Almanac

Astronomy

Sep. 21, 2014 Rise Set
Actual Time 7:21 AM EDT 7:33 PM EDT
Civil Twilight 6:54 AM EDT 8:01 PM EDT
Nautical Twilight 6:22 AM EDT 8:33 PM EDT
Astronomical Twilight 5:49 AM EDT 9:05 PM EDT
Moon 4:53 AM EDT (9/21) 6:10 PM EDT (9/21)
Length of Visible Light 13h 06m
Length of Day
12h 12m
Tomorrow will be 2m 41s shorter.
Waning Crescent, 5% of the Moon is Illuminated
Today
Waning Crescent
Sep 24
New
Oct 1
First Quarter
Oct 8
Full
Oct 15
Last Quarter

Today's Extremes

State Highs State Lows

Community

WunderPhotos

Upload Photos

1,755,310 photos uploaded!

WunderBlogs® & News

Nearby

Snow Depth

Station Depth Elevation
No new snow has been reported.

Earthquake Activity

City Distance Mag. Time & Date
No recent earthquake activity has been reported nearby.
Minimum magnitude displayed is 2.5.

Coastal Water Temperatures

Place Temperature
No Stations Reporting

Nearby Weather Stations